sensor_id;sensor_type;location;lat;lon;timestamp;P1;durP1;ratioP1;P2;durP2;ratioP2
84591;SDS011;74826;50.812;16.038;2024-02-14T00:00:59;62.75;;;23.45;;
84591;SDS011;74826;50.812;16.038;2024-02-14T00:03:25;72.45;;;25.92;;
84591;SDS011;74826;50.812;16.038;2024-02-14T00:05:50;83.80;;;24.40;;
84591;SDS011;74826;50.812;16.038;2024-02-14T00:10:42;80.82;;;25.25;;
84591;SDS011;74826;50.812;16.038;2024-02-14T00:13:09;70.63;;;19.95;;
84591;SDS011;74826;50.812;16.038;2024-02-14T00:15:35;47.45;;;17.02;;
84591;SDS011;74826;50.812;16.038;2024-02-14T00:18:01;51.65;;;17.88;;
84591;SDS011;74826;50.812;16.038;2024-02-14T00:20:27;49.70;;;17.05;;
84591;SDS011;74826;50.812;16.038;2024-02-14T00:22:53;59.00;;;17.38;;
84591;SDS011;74826;50.812;16.038;2024-02-14T00:25:18;56.63;;;18.67;;
84591;SDS011;74826;50.812;16.038;2024-02-14T00:27:43;62.95;;;21.60;;
84591;SDS011;74826;50.812;16.038;2024-02-14T00:30:09;67.55;;;23.10;;
84591;SDS011;74826;50.812;16.038;2024-02-14T00:32:35;74.35;;;25.85;;
84591;SDS011;74826;50.812;16.038;2024-02-14T00:35:00;92.40;;;29.33;;
84591;SDS011;74826;50.812;16.038;2024-02-14T00:37:26;82.72;;;27.40;;
84591;SDS011;74826;50.812;16.038;2024-02-14T00:39:52;79.13;;;24.83;;
84591;SDS011;74826;50.812;16.038;2024-02-14T00:42:19;79.32;;;29.00;;
84591;SDS011;74826;50.812;16.038;2024-02-14T00:44:44;74.75;;;26.17;;
84591;SDS011;74826;50.812;16.038;2024-02-14T00:47:09;84.18;;;27.75;;
84591;SDS011;74826;50.812;16.038;2024-02-14T00:49:35;78.05;;;28.42;;
84591;SDS011;74826;50.812;16.038;2024-02-14T00:52:01;75.57;;;27.23;;
84591;SDS011;74826;50.812;16.038;2024-02-14T00:54:26;84.25;;;26.65;;
84591;SDS011;74826;50.812;16.038;2024-02-14T00:56:52;77.32;;;27.40;;
84591;SDS011;74826;50.812;16.038;2024-02-14T00:59:17;65.15;;;26.00;;
84591;SDS011;74826;50.812;16.038;2024-02-14T01:01:43;83.07;;;25.30;;
84591;SDS011;74826;50.812;16.038;2024-02-14T01:04:09;79.88;;;26.90;;
84591;SDS011;74826;50.812;16.038;2024-02-14T01:06:35;78.15;;;26.08;;
84591;SDS011;74826;50.812;16.038;2024-02-14T01:09:00;73.07;;;23.30;;
84591;SDS011;74826;50.812;16.038;2024-02-14T01:11:25;74.20;;;26.33;;
84591;SDS011;74826;50.812;16.038;2024-02-14T01:13:51;90.97;;;29.23;;
84591;SDS011;74826;50.812;16.038;2024-02-14T01:16:16;82.75;;;28.98;;
84591;SDS011;74826;50.812;16.038;2024-02-14T01:18:42;82.93;;;26.65;;
84591;SDS011;74826;50.812;16.038;2024-02-14T01:21:07;79.97;;;26.63;;
84591;SDS011;74826;50.812;16.038;2024-02-14T01:23:34;112.28;;;33.38;;
84591;SDS011;74826;50.812;16.038;2024-02-14T01:25:59;86.05;;;28.85;;
84591;SDS011;74826;50.812;16.038;2024-02-14T01:28:24;89.25;;;30.88;;
84591;SDS011;74826;50.812;16.038;2024-02-14T01:31:15;79.20;;;28.98;;
84591;SDS011;74826;50.812;16.038;2024-02-14T01:33:41;74.18;;;28.42;;
84591;SDS011;74826;50.812;16.038;2024-02-14T01:36:06;76.32;;;26.30;;
84591;SDS011;74826;50.812;16.038;2024-02-14T01:38:32;88.97;;;27.20;;
84591;SDS011;74826;50.812;16.038;2024-02-14T01:41:00;92.47;;;27.88;;
84591;SDS011;74826;50.812;16.038;2024-02-14T01:43:27;76.50;;;28.00;;
84591;SDS011;74826;50.812;16.038;2024-02-14T01:45:53;80.70;;;26.65;;
84591;SDS011;74826;50.812;16.038;2024-02-14T01:48:18;82.85;;;27.73;;
84591;SDS011;74826;50.812;16.038;2024-02-14T01:50:45;73.88;;;26.48;;
84591;SDS011;74826;50.812;16.038;2024-02-14T01:53:11;81.18;;;28.35;;
84591;SDS011;74826;50.812;16.038;2024-02-14T01:55:38;96.03;;;29.92;;
84591;SDS011;74826;50.812;16.038;2024-02-14T01:58:03;86.38;;;28.20;;
84591;SDS011;74826;50.812;16.038;2024-02-14T02:00:30;83.35;;;29.00;;
84591;SDS011;74826;50.812;16.038;2024-02-14T02:02:56;90.35;;;30.73;;
84591;SDS011;74826;50.812;16.038;2024-02-14T02:05:22;101.43;;;33.50;;
84591;SDS011;74826;50.812;16.038;2024-02-14T02:07:48;94.70;;;33.38;;
84591;SDS011;74826;50.812;16.038;2024-02-14T02:10:15;98.20;;;34.55;;
84591;SDS011;74826;50.812;16.038;2024-02-14T02:12:41;98.38;;;32.38;;
84591;SDS011;74826;50.812;16.038;2024-02-14T02:15:07;98.13;;;32.13;;
84591;SDS011;74826;50.812;16.038;2024-02-14T02:17:36;90.15;;;27.55;;
84591;SDS011;74826;50.812;16.038;2024-02-14T02:20:01;84.32;;;28.90;;
84591;SDS011;74826;50.812;16.038;2024-02-14T02:22:27;85.78;;;33.53;;
84591;SDS011;74826;50.812;16.038;2024-02-14T02:24:57;81.57;;;27.55;;
84591;SDS011;74826;50.812;16.038;2024-02-14T02:27:22;87.13;;;29.92;;
84591;SDS011;74826;50.812;16.038;2024-02-14T02:29:48;66.30;;;22.40;;
84591;SDS011;74826;50.812;16.038;2024-02-14T02:32:13;65.00;;;21.10;;
84591;SDS011;74826;50.812;16.038;2024-02-14T02:34:40;56.42;;;21.40;;
84591;SDS011;74826;50.812;16.038;2024-02-14T02:37:05;53.33;;;17.67;;
84591;SDS011;74826;50.812;16.038;2024-02-14T02:39:34;62.47;;;20.83;;
84591;SDS011;74826;50.812;16.038;2024-02-14T02:44:27;48.80;;;17.25;;
84591;SDS011;74826;50.812;16.038;2024-02-14T02:46:52;46.72;;;19.90;;
84591;SDS011;74826;50.812;16.038;2024-02-14T02:49:18;55.50;;;18.48;;
84591;SDS011;74826;50.812;16.038;2024-02-14T02:51:43;50.33;;;14.93;;
84591;SDS011;74826;50.812;16.038;2024-02-14T02:54:09;43.75;;;15.65;;
84591;SDS011;74826;50.812;16.038;2024-02-14T02:56:36;53.10;;;16.33;;
84591;SDS011;74826;50.812;16.038;2024-02-14T02:59:01;48.38;;;18.50;;
84591;SDS011;74826;50.812;16.038;2024-02-14T03:01:28;51.42;;;16.17;;
84591;SDS011;74826;50.812;16.038;2024-02-14T03:03:59;52.47;;;15.43;;
84591;SDS011;74826;50.812;16.038;2024-02-14T03:06:25;55.15;;;17.48;;
84591;SDS011;74826;50.812;16.038;2024-02-14T03:11:18;58.30;;;17.83;;
84591;SDS011;74826;50.812;16.038;2024-02-14T03:13:45;74.78;;;21.10;;
84591;SDS011;74826;50.812;16.038;2024-02-14T03:16:10;58.80;;;21.42;;
84591;SDS011;74826;50.812;16.038;2024-02-14T03:18:36;64.97;;;22.25;;
84591;SDS011;74826;50.812;16.038;2024-02-14T03:21:03;64.45;;;21.45;;
84591;SDS011;74826;50.812;16.038;2024-02-14T03:23:31;75.53;;;24.35;;
84591;SDS011;74826;50.812;16.038;2024-02-14T03:25:56;74.95;;;22.80;;
84591;SDS011;74826;50.812;16.038;2024-02-14T03:28:22;69.78;;;23.85;;
84591;SDS011;74826;50.812;16.038;2024-02-14T03:30:48;65.90;;;21.92;;
84591;SDS011;74826;50.812;16.038;2024-02-14T03:33:14;59.53;;;22.73;;
84591;SDS011;74826;50.812;16.038;2024-02-14T03:35:40;64.90;;;21.60;;
84591;SDS011;74826;50.812;16.038;2024-02-14T03:38:06;60.35;;;23.48;;
84591;SDS011;74826;50.812;16.038;2024-02-14T03:40:33;62.15;;;22.23;;
84591;SDS011;74826;50.812;16.038;2024-02-14T03:43:00;82.50;;;25.92;;
84591;SDS011;74826;50.812;16.038;2024-02-14T03:45:27;83.97;;;25.75;;
84591;SDS011;74826;50.812;16.038;2024-02-14T03:47:54;71.10;;;25.67;;
84591;SDS011;74826;50.812;16.038;2024-02-14T03:50:20;79.50;;;25.58;;
84591;SDS011;74826;50.812;16.038;2024-02-14T03:52:45;63.20;;;24.02;;
84591;SDS011;74826;50.812;16.038;2024-02-14T03:55:13;72.75;;;24.40;;
84591;SDS011;74826;50.812;16.038;2024-02-14T03:57:39;71.20;;;25.17;;
84591;SDS011;74826;50.812;16.038;2024-02-14T04:00:04;80.05;;;25.40;;
84591;SDS011;74826;50.812;16.038;2024-02-14T04:02:33;73.40;;;25.92;;
84591;SDS011;74826;50.812;16.038;2024-02-14T04:07:25;64.43;;;22.23;;
84591;SDS011;74826;50.812;16.038;2024-02-14T04:09:51;64.57;;;22.05;;
84591;SDS011;74826;50.812;16.038;2024-02-14T04:12:17;74.47;;;26.40;;
84591;SDS011;74826;50.812;16.038;2024-02-14T04:14:43;66.50;;;23.42;;
84591;SDS011;74826;50.812;16.038;2024-02-14T04:17:08;69.47;;;26.83;;
84591;SDS011;74826;50.812;16.038;2024-02-14T04:19:34;76.90;;;26.08;;
84591;SDS011;74826;50.812;16.038;2024-02-14T04:21:59;73.88;;;26.52;;
84591;SDS011;74826;50.812;16.038;2024-02-14T04:24:25;67.00;;;23.58;;
84591;SDS011;74826;50.812;16.038;2024-02-14T04:26:50;76.88;;;25.83;;
84591;SDS011;74826;50.812;16.038;2024-02-14T04:29:20;65.57;;;23.02;;
84591;SDS011;74826;50.812;16.038;2024-02-14T04:31:45;64.93;;;23.70;;
84591;SDS011;74826;50.812;16.038;2024-02-14T04:34:11;71.60;;;23.02;;
84591;SDS011;74826;50.812;16.038;2024-02-14T04:36:38;67.22;;;23.65;;
84591;SDS011;74826;50.812;16.038;2024-02-14T04:41:30;53.50;;;20.80;;
84591;SDS011;74826;50.812;16.038;2024-02-14T04:43:56;71.80;;;23.05;;
84591;SDS011;74826;50.812;16.038;2024-02-14T04:46:21;57.28;;;21.63;;
84591;SDS011;74826;50.812;16.038;2024-02-14T04:48:47;59.35;;;22.60;;
84591;SDS011;74826;50.812;16.038;2024-02-14T04:51:13;55.35;;;20.48;;
84591;SDS011;74826;50.812;16.038;2024-02-14T04:53:38;63.47;;;20.15;;
84591;SDS011;74826;50.812;16.038;2024-02-14T04:56:04;62.70;;;21.58;;
84591;SDS011;74826;50.812;16.038;2024-02-14T04:58:29;60.50;;;21.08;;
84591;SDS011;74826;50.812;16.038;2024-02-14T05:00:55;51.15;;;21.35;;
84591;SDS011;74826;50.812;16.038;2024-02-14T05:03:20;57.63;;;19.65;;
84591;SDS011;74826;50.812;16.038;2024-02-14T05:05:46;55.25;;;19.02;;
84591;SDS011;74826;50.812;16.038;2024-02-14T05:08:11;60.95;;;21.77;;
84591;SDS011;74826;50.812;16.038;2024-02-14T05:10:37;71.97;;;24.45;;
84591;SDS011;74826;50.812;16.038;2024-02-14T05:13:02;59.70;;;21.83;;
84591;SDS011;74826;50.812;16.038;2024-02-14T05:15:28;77.15;;;23.92;;
84591;SDS011;74826;50.812;16.038;2024-02-14T05:17:54;63.97;;;21.70;;
84591;SDS011;74826;50.812;16.038;2024-02-14T05:20:21;66.53;;;23.63;;
84591;SDS011;74826;50.812;16.038;2024-02-14T05:22:46;60.55;;;22.95;;
84591;SDS011;74826;50.812;16.038;2024-02-14T05:25:12;56.65;;;20.65;;
84591;SDS011;74826;50.812;16.038;2024-02-14T05:27:38;54.28;;;20.38;;
84591;SDS011;74826;50.812;16.038;2024-02-14T05:30:04;70.45;;;24.15;;
84591;SDS011;74826;50.812;16.038;2024-02-14T05:32:33;62.85;;;22.00;;
84591;SDS011;74826;50.812;16.038;2024-02-14T05:34:58;64.68;;;22.95;;
84591;SDS011;74826;50.812;16.038;2024-02-14T05:37:24;54.67;;;21.75;;
84591;SDS011;74826;50.812;16.038;2024-02-14T05:39:53;70.78;;;24.08;;
84591;SDS011;74826;50.812;16.038;2024-02-14T05:42:20;64.70;;;23.15;;
84591;SDS011;74826;50.812;16.038;2024-02-14T05:44:46;58.80;;;21.92;;
84591;SDS011;74826;50.812;16.038;2024-02-14T05:47:12;63.75;;;20.42;;
84591;SDS011;74826;50.812;16.038;2024-02-14T05:49:40;71.50;;;23.52;;
84591;SDS011;74826;50.812;16.038;2024-02-14T05:52:06;67.05;;;21.80;;
84591;SDS011;74826;50.812;16.038;2024-02-14T05:54:32;66.95;;;23.38;;
84591;SDS011;74826;50.812;16.038;2024-02-14T05:56:58;61.40;;;23.25;;
84591;SDS011;74826;50.812;16.038;2024-02-14T05:59:23;71.55;;;23.27;;
84591;SDS011;74826;50.812;16.038;2024-02-14T06:01:49;59.30;;;22.85;;
84591;SDS011;74826;50.812;16.038;2024-02-14T06:04:14;67.30;;;26.35;;
84591;SDS011;74826;50.812;16.038;2024-02-14T06:06:40;67.55;;;27.27;;
84591;SDS011;74826;50.812;16.038;2024-02-14T06:09:06;81.13;;;31.77;;
84591;SDS011;74826;50.812;16.038;2024-02-14T06:11:35;195.32;;;65.40;;
84591;SDS011;74826;50.812;16.038;2024-02-14T06:14:03;174.23;;;58.17;;
84591;SDS011;74826;50.812;16.038;2024-02-14T06:16:29;108.95;;;37.28;;
84591;SDS011;74826;50.812;16.038;2024-02-14T06:18:55;116.00;;;41.60;;
84591;SDS011;74826;50.812;16.038;2024-02-14T06:21:20;117.60;;;41.60;;
84591;SDS011;74826;50.812;16.038;2024-02-14T06:23:46;94.80;;;32.30;;
84591;SDS011;74826;50.812;16.038;2024-02-14T06:26:12;72.13;;;25.15;;
84591;SDS011;74826;50.812;16.038;2024-02-14T06:28:37;66.70;;;24.67;;
84591;SDS011;74826;50.812;16.038;2024-02-14T06:31:02;65.22;;;23.98;;
84591;SDS011;74826;50.812;16.038;2024-02-14T06:33:28;65.78;;;24.83;;
84591;SDS011;74826;50.812;16.038;2024-02-14T06:35:53;80.15;;;26.15;;
84591;SDS011;74826;50.812;16.038;2024-02-14T06:38:19;84.38;;;29.48;;
84591;SDS011;74826;50.812;16.038;2024-02-14T06:40:44;72.35;;;28.60;;
84591;SDS011;74826;50.812;16.038;2024-02-14T06:43:10;85.45;;;33.10;;
84591;SDS011;74826;50.812;16.038;2024-02-14T06:45:37;88.35;;;30.48;;
84591;SDS011;74826;50.812;16.038;2024-02-14T06:48:03;79.43;;;28.77;;
84591;SDS011;74826;50.812;16.038;2024-02-14T06:50:28;84.47;;;30.10;;
84591;SDS011;74826;50.812;16.038;2024-02-14T06:52:56;85.45;;;27.63;;
84591;SDS011;74826;50.812;16.038;2024-02-14T06:55:25;85.90;;;28.65;;
84591;SDS011;74826;50.812;16.038;2024-02-14T06:57:51;77.65;;;27.77;;
84591;SDS011;74826;50.812;16.038;2024-02-14T07:00:17;105.30;;;39.33;;
84591;SDS011;74826;50.812;16.038;2024-02-14T07:02:43;71.28;;;28.95;;
84591;SDS011;74826;50.812;16.038;2024-02-14T07:05:12;77.85;;;27.23;;
84591;SDS011;74826;50.812;16.038;2024-02-14T07:07:37;80.10;;;26.30;;
84591;SDS011;74826;50.812;16.038;2024-02-14T07:10:04;62.88;;;25.77;;
84591;SDS011;74826;50.812;16.038;2024-02-14T07:12:31;96.82;;;29.27;;
84591;SDS011;74826;50.812;16.038;2024-02-14T07:14:57;274.75;;;75.35;;
84591;SDS011;74826;50.812;16.038;2024-02-14T07:17:22;178.50;;;56.38;;
84591;SDS011;74826;50.812;16.038;2024-02-14T07:19:48;168.05;;;52.17;;
84591;SDS011;74826;50.812;16.038;2024-02-14T07:22:15;157.45;;;51.65;;
84591;SDS011;74826;50.812;16.038;2024-02-14T07:24:41;126.32;;;40.45;;
84591;SDS011;74826;50.812;16.038;2024-02-14T07:27:07;118.95;;;41.80;;
84591;SDS011;74826;50.812;16.038;2024-02-14T07:29:33;104.80;;;38.88;;
84591;SDS011;74826;50.812;16.038;2024-02-14T07:32:01;122.40;;;37.90;;
84591;SDS011;74826;50.812;16.038;2024-02-14T07:34:27;192.60;;;60.90;;
84591;SDS011;74826;50.812;16.038;2024-02-14T07:36:52;186.73;;;62.75;;
84591;SDS011;74826;50.812;16.038;2024-02-14T07:39:18;163.75;;;49.25;;
84591;SDS011;74826;50.812;16.038;2024-02-14T07:41:43;145.85;;;48.95;;
84591;SDS011;74826;50.812;16.038;2024-02-14T07:44:09;124.10;;;42.00;;
84591;SDS011;74826;50.812;16.038;2024-02-14T07:46:34;184.60;;;59.53;;
84591;SDS011;74826;50.812;16.038;2024-02-14T07:49:00;214.82;;;73.68;;
84591;SDS011;74826;50.812;16.038;2024-02-14T07:51:25;309.05;;;92.60;;
84591;SDS011;74826;50.812;16.038;2024-02-14T07:53:53;253.20;;;84.28;;
84591;SDS011;74826;50.812;16.038;2024-02-14T07:56:18;234.20;;;81.50;;
84591;SDS011;74826;50.812;16.038;2024-02-14T07:58:43;241.40;;;77.55;;
84591;SDS011;74826;50.812;16.038;2024-02-14T08:01:09;240.95;;;80.75;;
84591;SDS011;74826;50.812;16.038;2024-02-14T08:03:34;309.08;;;99.28;;
84591;SDS011;74826;50.812;16.038;2024-02-14T08:06:00;322.02;;;103.30;;
84591;SDS011;74826;50.812;16.038;2024-02-14T08:08:25;261.50;;;88.10;;
84591;SDS011;74826;50.812;16.038;2024-02-14T08:10:52;227.48;;;77.00;;
84591;SDS011;74826;50.812;16.038;2024-02-14T08:13:19;192.02;;;65.25;;
84591;SDS011;74826;50.812;16.038;2024-02-14T08:15:44;198.85;;;67.18;;
84591;SDS011;74826;50.812;16.038;2024-02-14T08:18:10;179.45;;;63.53;;
84591;SDS011;74826;50.812;16.038;2024-02-14T08:20:37;186.65;;;63.90;;
84591;SDS011;74826;50.812;16.038;2024-02-14T08:23:03;164.23;;;59.35;;
84591;SDS011;74826;50.812;16.038;2024-02-14T08:25:28;121.65;;;47.40;;
84591;SDS011;74826;50.812;16.038;2024-02-14T08:27:54;94.63;;;36.92;;
84591;SDS011;74826;50.812;16.038;2024-02-14T08:32:47;92.00;;;36.10;;
84591;SDS011;74826;50.812;16.038;2024-02-14T08:35:12;96.03;;;35.67;;
84591;SDS011;74826;50.812;16.038;2024-02-14T08:40:05;70.43;;;24.90;;
84591;SDS011;74826;50.812;16.038;2024-02-14T08:42:32;62.67;;;23.92;;
84591;SDS011;74826;50.812;16.038;2024-02-14T08:44:58;47.80;;;15.80;;
84591;SDS011;74826;50.812;16.038;2024-02-14T08:47:24;44.17;;;15.07;;
84591;SDS011;74826;50.812;16.038;2024-02-14T08:49:49;40.58;;;17.05;;
84591;SDS011;74826;50.812;16.038;2024-02-14T08:52:14;37.38;;;14.23;;
84591;SDS011;74826;50.812;16.038;2024-02-14T08:54:40;34.85;;;11.82;;
84591;SDS011;74826;50.812;16.038;2024-02-14T08:57:05;26.25;;;10.10;;
84591;SDS011;74826;50.812;16.038;2024-02-14T08:59:31;32.90;;;13.18;;
84591;SDS011;74826;50.812;16.038;2024-02-14T09:01:56;30.58;;;11.60;;
84591;SDS011;74826;50.812;16.038;2024-02-14T09:04:21;22.05;;;9.43;;
84591;SDS011;74826;50.812;16.038;2024-02-14T09:06:47;21.80;;;9.30;;
84591;SDS011;74826;50.812;16.038;2024-02-14T09:09:12;27.88;;;11.05;;
84591;SDS011;74826;50.812;16.038;2024-02-14T09:11:39;33.03;;;13.13;;
84591;SDS011;74826;50.812;16.038;2024-02-14T09:14:06;35.75;;;13.10;;
84591;SDS011;74826;50.812;16.038;2024-02-14T09:16:35;32.72;;;12.82;;
84591;SDS011;74826;50.812;16.038;2024-02-14T09:19:00;23.77;;;9.30;;
84591;SDS011;74826;50.812;16.038;2024-02-14T09:21:31;32.58;;;11.30;;
84591;SDS011;74826;50.812;16.038;2024-02-14T09:23:59;32.97;;;13.25;;
84591;SDS011;74826;50.812;16.038;2024-02-14T09:26:24;32.63;;;11.15;;
84591;SDS011;74826;50.812;16.038;2024-02-14T09:28:51;25.40;;;10.05;;
84591;SDS011;74826;50.812;16.038;2024-02-14T09:31:20;24.30;;;10.75;;
84591;SDS011;74826;50.812;16.038;2024-02-14T09:33:46;30.02;;;10.27;;
84591;SDS011;74826;50.812;16.038;2024-02-14T09:36:37;36.28;;;15.75;;
84591;SDS011;74826;50.812;16.038;2024-02-14T09:39:04;35.78;;;15.43;;
84591;SDS011;74826;50.812;16.038;2024-02-14T09:41:36;32.65;;;13.38;;
84591;SDS011;74826;50.812;16.038;2024-02-14T09:44:05;37.22;;;14.30;;
84591;SDS011;74826;50.812;16.038;2024-02-14T09:46:30;29.15;;;11.73;;
84591;SDS011;74826;50.812;16.038;2024-02-14T09:48:56;24.58;;;11.85;;
84591;SDS011;74826;50.812;16.038;2024-02-14T09:51:27;25.02;;;10.55;;
84591;SDS011;74826;50.812;16.038;2024-02-14T09:53:54;27.95;;;11.98;;
84591;SDS011;74826;50.812;16.038;2024-02-14T09:56:20;35.10;;;15.60;;
84591;SDS011;74826;50.812;16.038;2024-02-14T09:58:48;33.95;;;12.05;;
84591;SDS011;74826;50.812;16.038;2024-02-14T10:01:21;30.73;;;11.65;;
84591;SDS011;74826;50.812;16.038;2024-02-14T10:03:51;29.77;;;11.93;;
84591;SDS011;74826;50.812;16.038;2024-02-14T10:06:20;26.83;;;11.57;;
84591;SDS011;74826;50.812;16.038;2024-02-14T10:08:46;29.10;;;11.05;;
84591;SDS011;74826;50.812;16.038;2024-02-14T10:11:13;31.52;;;11.15;;
84591;SDS011;74826;50.812;16.038;2024-02-14T10:13:40;31.30;;;11.60;;
84591;SDS011;74826;50.812;16.038;2024-02-14T10:16:06;36.80;;;11.15;;
84591;SDS011;74826;50.812;16.038;2024-02-14T10:18:33;24.33;;;10.43;;
84591;SDS011;74826;50.812;16.038;2024-02-14T10:20:59;20.88;;;9.35;;
84591;SDS011;74826;50.812;16.038;2024-02-14T10:23:26;29.80;;;10.18;;
84591;SDS011;74826;50.812;16.038;2024-02-14T10:25:53;24.20;;;8.80;;
84591;SDS011;74826;50.812;16.038;2024-02-14T10:28:20;18.70;;;7.32;;
84591;SDS011;74826;50.812;16.038;2024-02-14T10:33:12;27.20;;;8.40;;
84591;SDS011;74826;50.812;16.038;2024-02-14T10:35:37;20.30;;;6.75;;
84591;SDS011;74826;50.812;16.038;2024-02-14T10:38:06;17.70;;;6.20;;
84591;SDS011;74826;50.812;16.038;2024-02-14T10:40:34;22.48;;;8.85;;
84591;SDS011;74826;50.812;16.038;2024-02-14T10:43:07;16.00;;;5.97;;
84591;SDS011;74826;50.812;16.038;2024-02-14T10:45:34;16.70;;;6.80;;
84591;SDS011;74826;50.812;16.038;2024-02-14T10:48:04;13.75;;;6.57;;
84591;SDS011;74826;50.812;16.038;2024-02-14T10:50:32;20.38;;;9.05;;
84591;SDS011;74826;50.812;16.038;2024-02-14T10:53:00;21.05;;;7.90;;
84591;SDS011;74826;50.812;16.038;2024-02-14T10:55:30;24.27;;;7.88;;
84591;SDS011;74826;50.812;16.038;2024-02-14T10:57:57;19.65;;;8.32;;
84591;SDS011;74826;50.812;16.038;2024-02-14T11:00:24;19.73;;;7.15;;
84591;SDS011;74826;50.812;16.038;2024-02-14T11:02:50;25.55;;;10.13;;
84591;SDS011;74826;50.812;16.038;2024-02-14T11:05:18;20.10;;;7.70;;
84591;SDS011;74826;50.812;16.038;2024-02-14T11:07:48;23.98;;;9.70;;
84591;SDS011;74826;50.812;16.038;2024-02-14T11:10:20;17.73;;;8.85;;
84591;SDS011;74826;50.812;16.038;2024-02-14T11:12:47;25.40;;;10.57;;
84591;SDS011;74826;50.812;16.038;2024-02-14T11:15:22;26.63;;;9.07;;
84591;SDS011;74826;50.812;16.038;2024-02-14T11:18:03;31.48;;;10.18;;
84591;SDS011;74826;50.812;16.038;2024-02-14T11:20:34;24.02;;;10.05;;
84591;SDS011;74826;50.812;16.038;2024-02-14T11:23:04;25.98;;;9.55;;
84591;SDS011;74826;50.812;16.038;2024-02-14T11:25:36;19.42;;;8.40;;
84591;SDS011;74826;50.812;16.038;2024-02-14T11:30:41;24.35;;;9.18;;
84591;SDS011;74826;50.812;16.038;2024-02-14T11:35:49;24.98;;;10.10;;
84591;SDS011;74826;50.812;16.038;2024-02-14T11:38:16;22.50;;;10.75;;
84591;SDS011;74826;50.812;16.038;2024-02-14T11:40:42;27.73;;;8.95;;
84591;SDS011;74826;50.812;16.038;2024-02-14T11:45:45;18.75;;;7.32;;
84591;SDS011;74826;50.812;16.038;2024-02-14T11:48:14;17.25;;;7.47;;
84591;SDS011;74826;50.812;16.038;2024-02-14T11:50:40;25.15;;;9.05;;
84591;SDS011;74826;50.812;16.038;2024-02-14T11:53:06;23.05;;;7.40;;
84591;SDS011;74826;50.812;16.038;2024-02-14T11:55:35;25.15;;;7.53;;
84591;SDS011;74826;50.812;16.038;2024-02-14T11:58:03;19.05;;;7.45;;
84591;SDS011;74826;50.812;16.038;2024-02-14T12:00:32;22.17;;;8.57;;
84591;SDS011;74826;50.812;16.038;2024-02-14T12:02:58;20.30;;;8.27;;
84591;SDS011;74826;50.812;16.038;2024-02-14T12:05:24;16.20;;;6.45;;
84591;SDS011;74826;50.812;16.038;2024-02-14T12:07:50;21.50;;;7.80;;
84591;SDS011;74826;50.812;16.038;2024-02-14T12:10:16;20.08;;;7.93;;
84591;SDS011;74826;50.812;16.038;2024-02-14T12:12:44;20.40;;;7.60;;
84591;SDS011;74826;50.812;16.038;2024-02-14T12:15:11;20.50;;;7.35;;
84591;SDS011;74826;50.812;16.038;2024-02-14T12:17:39;20.23;;;8.80;;
84591;SDS011;74826;50.812;16.038;2024-02-14T12:20:08;23.17;;;8.90;;
84591;SDS011;74826;50.812;16.038;2024-02-14T12:22:35;25.27;;;7.47;;
84591;SDS011;74826;50.812;16.038;2024-02-14T12:25:03;29.23;;;10.43;;
84591;SDS011;74826;50.812;16.038;2024-02-14T12:27:33;28.50;;;10.18;;
84591;SDS011;74826;50.812;16.038;2024-02-14T12:29:59;19.23;;;8.23;;
84591;SDS011;74826;50.812;16.038;2024-02-14T12:32:27;21.20;;;8.18;;
84591;SDS011;74826;50.812;16.038;2024-02-14T12:34:55;25.48;;;8.20;;
84591;SDS011;74826;50.812;16.038;2024-02-14T12:37:22;15.65;;;6.47;;
84591;SDS011;74826;50.812;16.038;2024-02-14T12:39:48;19.67;;;8.10;;
84591;SDS011;74826;50.812;16.038;2024-02-14T12:42:14;19.63;;;7.47;;
84591;SDS011;74826;50.812;16.038;2024-02-14T12:44:39;22.48;;;7.28;;
84591;SDS011;74826;50.812;16.038;2024-02-14T12:47:05;24.52;;;7.40;;
84591;SDS011;74826;50.812;16.038;2024-02-14T12:49:32;16.42;;;5.50;;
84591;SDS011;74826;50.812;16.038;2024-02-14T12:51:59;23.73;;;9.82;;
84591;SDS011;74826;50.812;16.038;2024-02-14T12:54:24;18.20;;;6.85;;
84591;SDS011;74826;50.812;16.038;2024-02-14T12:56:49;22.63;;;8.98;;
84591;SDS011;74826;50.812;16.038;2024-02-14T12:59:16;23.92;;;8.98;;
84591;SDS011;74826;50.812;16.038;2024-02-14T13:01:43;23.77;;;9.02;;
84591;SDS011;74826;50.812;16.038;2024-02-14T13:04:09;25.65;;;9.85;;
84591;SDS011;74826;50.812;16.038;2024-02-14T13:06:34;27.08;;;8.50;;
84591;SDS011;74826;50.812;16.038;2024-02-14T13:09:01;23.80;;;9.35;;
84591;SDS011;74826;50.812;16.038;2024-02-14T13:11:30;43.13;;;18.98;;
84591;SDS011;74826;50.812;16.038;2024-02-14T13:13:56;28.73;;;12.65;;
84591;SDS011;74826;50.812;16.038;2024-02-14T13:16:22;18.17;;;7.47;;
84591;SDS011;74826;50.812;16.038;2024-02-14T13:18:47;22.15;;;7.85;;
84591;SDS011;74826;50.812;16.038;2024-02-14T13:21:13;14.77;;;5.75;;
84591;SDS011;74826;50.812;16.038;2024-02-14T13:23:38;21.40;;;7.10;;
84591;SDS011;74826;50.812;16.038;2024-02-14T13:26:05;18.20;;;6.82;;
84591;SDS011;74826;50.812;16.038;2024-02-14T13:28:32;19.15;;;8.07;;
84591;SDS011;74826;50.812;16.038;2024-02-14T13:30:58;22.58;;;7.80;;
84591;SDS011;74826;50.812;16.038;2024-02-14T13:33:24;20.00;;;8.15;;
84591;SDS011;74826;50.812;16.038;2024-02-14T13:35:49;18.17;;;7.63;;
84591;SDS011;74826;50.812;16.038;2024-02-14T13:38:15;25.10;;;8.70;;
84591;SDS011;74826;50.812;16.038;2024-02-14T13:40:42;19.98;;;6.60;;
84591;SDS011;74826;50.812;16.038;2024-02-14T13:43:08;24.92;;;8.02;;
84591;SDS011;74826;50.812;16.038;2024-02-14T13:45:43;20.58;;;6.07;;
84591;SDS011;74826;50.812;16.038;2024-02-14T13:48:09;26.42;;;11.02;;
84591;SDS011;74826;50.812;16.038;2024-02-14T13:50:35;16.83;;;6.53;;
84591;SDS011;74826;50.812;16.038;2024-02-14T13:53:01;21.75;;;7.43;;
84591;SDS011;74826;50.812;16.038;2024-02-14T13:55:27;19.23;;;7.43;;
84591;SDS011;74826;50.812;16.038;2024-02-14T13:57:52;22.38;;;8.40;;
84591;SDS011;74826;50.812;16.038;2024-02-14T14:00:18;19.70;;;8.15;;
84591;SDS011;74826;50.812;16.038;2024-02-14T14:02:43;26.67;;;8.05;;
84591;SDS011;74826;50.812;16.038;2024-02-14T14:05:11;18.00;;;7.25;;
84591;SDS011;74826;50.812;16.038;2024-02-14T14:07:38;24.98;;;9.32;;
84591;SDS011;74826;50.812;16.038;2024-02-14T14:10:04;28.17;;;9.60;;
84591;SDS011;74826;50.812;16.038;2024-02-14T14:12:30;26.40;;;10.02;;
84591;SDS011;74826;50.812;16.038;2024-02-14T14:14:57;29.33;;;11.50;;
84591;SDS011;74826;50.812;16.038;2024-02-14T14:17:22;64.55;;;21.15;;
84591;SDS011;74826;50.812;16.038;2024-02-14T14:19:48;28.33;;;10.35;;
84591;SDS011;74826;50.812;16.038;2024-02-14T14:22:13;33.97;;;14.15;;
84591;SDS011;74826;50.812;16.038;2024-02-14T14:24:39;96.20;;;36.58;;
84591;SDS011;74826;50.812;16.038;2024-02-14T14:27:05;21.40;;;8.80;;
84591;SDS011;74826;50.812;16.038;2024-02-14T14:29:34;30.20;;;12.65;;
84591;SDS011;74826;50.812;16.038;2024-02-14T14:31:59;31.80;;;11.77;;
84591;SDS011;74826;50.812;16.038;2024-02-14T14:34:25;40.83;;;13.45;;